Onweer radar Meer informatie blitzortung!


Regen radar Meer informatie rain snow radar



METAR rapporten vliegvelden

   
EHVK - Volkel Rnlafb, Netherlands
Afstand tot: ZW 18 km
Gewijzigd: 13-08-2022 13:55
Helder  
Helder  
   Wind: Oosten 13 km/h
Wind: Oosten 13 km/h
Temperatuur: 31°C
Dauwpunt: 8°C
Vochtigheid: 24%
Barometer: 1016 hPa
Bewolking: Helder
Zicht: meer dan 10 km
Bewolking: Helder
EHVK 131155Z AUTO 08007KT 030V170 9999 NCD 31/08 Q1016 BLU
EDLV - Niederrhein, Germany
Afstand tot: ZO 25 km
Gewijzigd: 13-08-2022 13:50
Helder  
Helder  
   Wind: varieert 11.1 km/h<br />Gust to 11.1 km/h
Wind: varieert 11.1 km/h
Gust to 11.1 km/h
Temperatuur: 31°C
Dauwpunt: 10°C
Vochtigheid: 27%
Barometer: 1016 hPa
Zicht: meer dan 10 km
Bewolking: Helder
EDLV 131150Z VRB06G18KT CAVOK 31/10 Q1016
EHDL - Deelen Rnlafb, Netherlands
Afstand tot: N 35 km
Gewijzigd: 13-08-2022 13:55
Helder  
Helder  
   Wind: varieert 16.7 km/h
Wind: varieert 16.7 km/h
Temperatuur: 30°C
Dauwpunt: 7°C
Vochtigheid: 24%
Barometer: 1016 hPa
Bewolking: Helder
Zicht: meer dan 10 km
Bewolking: Helder
EHDL 131155Z AUTO VRB09KT 9999 NCD 30/07 Q1016 BLU
EHEH - Eindhoven Rnlafb, Netherlands
Afstand tot: ZW 48 km
Gewijzigd: 13-08-2022 13:55
Helder  
Helder  
   Wind: ONO 14.8 km/h
Wind: ONO 14.8 km/h
Temperatuur: 31°C
Dauwpunt: 8°C
Vochtigheid: 24%
Barometer: 1016 hPa
Bewolking: Helder
Zicht: meer dan 10 km
Bewolking: Helder
EHEH 131155Z AUTO 07008KT 020V180 9999 NCD 31/08 Q1016 BLU NOSIG
EHGR - Gilze-Rijen Rnla, Netherlands
Afstand tot: WZW 70 km
Gewijzigd: 13-08-2022 13:55
Helder  
Helder  
   Wind: ZZO 13 km/h
Wind: ZZO 13 km/h
Temperatuur: 31°C
Dauwpunt: 7°C
Vochtigheid: 22%
Barometer: 1015 hPa
Bewolking: Helder
Zicht: meer dan 10 km
Bewolking: Helder
EHGR 131155Z AUTO 15007KT 070V220 9999 NCD 31/07 Q1015 BLU
EBBL - Kleine-Brogel(Ba, Belgium
Afstand tot: ZZW 71 km
Gewijzigd: 13-08-2022 13:25
Helder  
Helder  
   Wind: Oosten 13 km/h
Wind: Oosten 13 km/h
Temperatuur: 30°C
Dauwpunt: 7°C
Vochtigheid: 24%
Barometer: 1016 hPa
Bewolking: Helder
Zicht: meer dan 10 km
Bewolking: Helder
EBBL 131125Z AUTO 08007KT 9999 NCD 30/07 Q1016 BLU

Script ontwikkeld door  Saratoga-weather.org Aangepast voor de template door  Weerstation Leuven